RJAN(METAR)
12/11 16:00
RJAN 110700Z 07012G23KT 9999 SCT020 OVCXXX 12/09 Q1023 RMK A3023=
戻る
トップページへ戻る
IMOC Co,.Ltd.